Time;durP1;ratioP1;P1;durP2;ratioP2;P2;SDS_P1;SDS_P2;PMS_P1;PMS_P2;Temp;Humidity;BMP_temperature;BMP_pressure;BME280_temperature;BME280_humidity;BME280_pressure;Samples;Min_cycle;Max_cycle;Signal;HPM_P1;HPM_P2
2021/08/27 00:01:44;;;;;;;7.10;5.20;;;;;;;29.20;64.49;100785.19;5073013;27;70064;-40
2021/08/27 00:04:15;;;;;;;5.65;5.15;;;;;;;29.23;65.46;100784.81;5072325;27;66250;-38
2021/08/27 00:06:45;;;;;;;6.72;6.03;;;;;;;29.29;66.31;100789.34;5077727;27;69979;-38
2021/08/27 00:09:15;;;;;;;6.18;5.68;;;;;;;29.29;66.49;100797.44;5066981;27;66185;-40
2021/08/27 00:11:46;;;;;;;7.60;6.03;;;;;;;29.31;66.75;100790.81;5056578;28;70300;-37
2021/08/27 00:14:19;;;;;;;6.10;5.60;;;;;;;29.32;67.39;100792.44;5068084;27;66076;-38
2021/08/27 00:16:51;;;;;;;6.50;5.80;;;;;;;29.38;67.91;100797.00;5067538;27;70213;-38
2021/08/27 00:19:22;;;;;;;7.43;6.03;;;;;;;29.43;67.66;100798.25;5070707;27;66520;-40
2021/08/27 00:22:12;;;;;;;5.88;5.38;;;;;;;29.37;68.52;100787.25;5068837;27;68826;-38
2021/08/27 00:24:50;;;;;;;9.82;6.07;;;;;;;29.43;68.29;100792.84;5053751;27;65989;-38
2021/08/27 00:27:21;;;;;;;8.70;6.13;;;;;;;29.51;69.10;100800.72;5076525;27;70177;-38
2021/08/27 00:29:56;;;;;;;11.73;7.13;;;;;;;29.56;69.46;100815.25;5070359;27;66190;-37
2021/08/27 00:32:29;;;;;;;8.65;7.00;;;;;;;29.55;69.37;100800.06;5074544;27;70093;-38
2021/08/27 00:35:03;;;;;;;12.53;7.93;;;;;;;29.61;69.67;100810.03;5054279;27;66029;-39
2021/08/27 00:37:36;;;;;;;11.23;8.63;;;;;;;29.67;70.10;100812.94;5068557;27;69119;-37
2021/08/27 00:40:08;;;;;;;13.07;10.23;;;;;;;29.65;70.97;100807.75;5076568;27;66631;-37
2021/08/27 00:42:39;;;;;;;20.67;11.95;;;;;;;29.74;70.87;100811.88;5077799;27;69945;-37
2021/08/27 00:45:12;;;;;;;14.20;10.45;;;;;;;29.76;71.02;100820.63;5066905;27;66581;-37
2021/08/27 00:47:44;;;;;;;12.38;10.00;;;;;;;29.77;71.57;100816.84;5069181;27;69670;-37
2021/08/27 00:50:15;;;;;;;17.30;9.35;;;;;;;29.80;72.17;100816.44;5054049;28;66871;-39
2021/08/27 00:52:46;;;;;;;15.47;8.30;;;;;;;29.87;72.36;100823.69;5071010;27;69431;-38
2021/08/27 00:55:20;;;;;;;15.15;8.75;;;;;;;29.90;72.10;100832.22;5069408;27;65106;-38
2021/08/27 00:57:51;;;;;;;8.68;7.80;;;;;;;29.90;72.26;100831.38;5052144;27;70598;-38
2021/08/27 01:00:24;;;;;;;11.55;7.82;;;;;;;29.89;72.11;100829.69;5046128;27;65659;-38
2021/08/27 01:02:55;;;;;;;7.68;6.75;;;;;;;29.89;72.47;100835.13;5062133;27;69918;-38
2021/08/27 01:05:32;;;;;;;10.43;6.55;;;;;;;29.92;72.34;100845.50;5067989;27;66458;-38
2021/08/27 01:08:17;;;;;;;6.63;6.13;;;;;;;29.59;72.24;100792.38;5067642;27;69089;-37
2021/08/27 01:11:01;;;;;;;5.63;5.18;;;;;;;29.94;71.68;100843.41;5062640;27;66127;-38
2021/08/27 01:13:45;;;;;;;5.68;5.10;;;;;;;29.93;72.36;100850.72;5066873;27;69943;-38
2021/08/27 01:16:51;;;;;;;5.18;4.75;;;;;;;29.90;72.13;100843.03;5055497;27;67055;-38
2021/08/27 01:19:32;;;;;;;5.80;5.22;;;;;;;29.97;71.53;100849.22;5066500;27;70267;-38
2021/08/27 01:22:06;;;;;;;5.28;4.88;;;;;;;30.01;71.99;100846.94;5066286;27;66649;-39
2021/08/27 01:24:45;;;;;;;6.28;5.18;;;;;;;29.84;71.88;100825.78;5049638;27;69275;-39
2021/08/27 01:27:26;;;;;;;5.30;4.80;;;;;;;29.99;72.38;100857.13;5031665;28;66503;-39
2021/08/27 01:30:35;;;;;;;6.63;5.20;;;;;;;29.96;71.84;100847.56;5068893;27;70131;-39
2021/08/27 01:33:23;;;;;;;5.78;5.28;;;;;;;30.01;72.49;100855.03;5053483;27;66065;-38
2021/08/27 01:36:08;;;;;;;6.10;4.25;;;;;;;30.02;71.94;100852.09;5063728;27;43194;-38
2021/08/27 01:38:47;;;;;;;6.43;4.32;;;;;;;30.07;71.59;100865.00;5070859;27;65370;-38
2021/08/27 01:41:22;;;;;;;6.95;3.83;;;;;;;30.09;71.97;100871.03;5048266;27;70582;-38
2021/08/27 01:43:56;;;;;;;4.10;3.80;;;;;;;30.12;71.14;100869.78;5046737;27;66375;-38
2021/08/27 01:46:39;;;;;;;3.58;3.38;;;;;;;30.01;71.45;100860.47;5046128;28;70392;-38
2021/08/27 01:49:13;;;;;;;3.97;3.22;;;;;;;29.92;71.68;100846.34;5066462;27;68147;-38
2021/08/27 01:51:47;;;;;;;4.18;3.88;;;;;;;29.86;71.73;100824.72;5045349;27;69784;-39
2021/08/27 01:54:29;;;;;;;4.13;3.83;;;;;;;30.13;71.54;100879.53;5070007;27;66200;-38
2021/08/27 01:57:06;;;;;;;4.50;4.18;;;;;;;30.14;71.28;100879.31;5053985;27;69493;-38
2021/08/27 02:00:02;;;;;;;4.38;4.07;;;;;;;30.15;71.45;100877.47;5072150;27;65778;-38
2021/08/27 02:03:04;;;;;;;7.30;4.63;;;;;;;30.16;72.17;100879.94;5061602;27;69874;-38
2021/08/27 02:05:40;;;;;;;7.30;4.95;;;;;;;30.14;72.02;100854.13;5060827;27;68255;-38
2021/08/27 02:08:21;;;;;;;7.07;6.38;;;;;;;29.92;71.81;100818.44;5069671;27;68721;-40
2021/08/27 02:11:03;;;;;;;11.35;6.43;;;;;;;30.22;72.26;100865.56;5051853;27;66298;-37
2021/08/27 02:13:39;;;;;;;10.68;7.30;;;;;;;30.26;71.90;100864.09;5061524;27;70725;-40
2021/08/27 02:16:14;;;;;;;9.75;7.00;;;;;;;30.31;72.31;100876.13;5067334;27;65444;-38
2021/08/27 02:18:49;;;;;;;6.53;5.93;;;;;;;30.25;70.81;100861.59;5071281;27;70345;-39
2021/08/27 02:21:28;;;;;;;7.20;5.90;;;;;;;29.99;69.75;100817.38;5076194;27;65805;-39
2021/08/27 02:24:07;;;;;;;6.25;5.68;;;;;;;30.33;69.91;100874.06;5068154;27;69302;-39
2021/08/27 02:26:52;;;;;;;5.55;5.00;;;;;;;30.32;70.07;100862.41;5070195;27;65786;-38
2021/08/27 02:29:29;;;;;;;5.53;5.03;;;;;;;30.34;70.27;100864.88;5054446;28;69981;-38
2021/08/27 02:32:06;;;;;;;7.90;4.50;;;;;;;30.40;69.51;100870.28;5063700;28;65431;-39
2021/08/27 02:34:45;;;;;;;5.70;5.20;;;;;;;30.41;67.99;100871.09;5054699;28;69246;-38
2021/08/27 02:37:32;;;;;;;5.07;4.70;;;;;;;30.20;67.43;100847.84;5075261;27;66327;-37
2021/08/27 02:40:07;;;;;;;4.80;4.40;;;;;;;30.43;66.01;100879.84;5067206;27;70073;-38
2021/08/27 02:42:40;;;;;;;5.03;4.60;;;;;;;30.42;67.00;100883.56;5069346;27;66294;-39
2021/08/27 02:45:19;;;;;;;4.45;4.05;;;;;;;30.44;67.62;100882.31;5076471;27;69306;-44
2021/08/27 02:47:59;;;;;;;9.48;4.07;;;;;;;30.48;68.00;100877.31;5064616;27;66207;-37
2021/08/27 02:50:41;;;;;;;4.93;4.32;;;;;;;30.51;67.05;100876.88;5070172;27;70137;-38
2021/08/27 02:53:30;;;;;;;7.75;3.92;;;;;;;30.48;67.08;100875.44;5057387;28;65512;-37
2021/08/27 02:56:10;;;;;;;4.78;3.80;;;;;;;30.50;67.55;100869.78;5036713;27;68986;-37
2021/08/27 02:58:57;;;;;;;4.70;4.13;;;;;;;30.57;66.17;100875.16;5068134;27;66620;-37
2021/08/27 03:01:38;;;;;;;4.20;3.70;;;;;;;30.59;66.75;100871.19;5054213;28;69958;-39
2021/08/27 03:04:35;;;;;;;3.47;3.17;;;;;;;30.59;66.29;100879.31;5068052;27;66093;-38
2021/08/27 03:07:12;;;;;;;3.85;3.47;;;;;;;30.33;64.95;100809.09;5070628;27;69445;-37
2021/08/27 03:10:03;;;;;;;3.70;3.40;;;;;;;30.62;66.65;100869.91;5077532;27;66324;-37
2021/08/27 03:12:58;;;;;;;4.68;3.20;;;;;;;30.10;66.24;100772.59;5070814;27;70477;-37
2021/08/27 03:16:06;;;;;;;4.22;3.83;;;;;;;30.38;66.36;100812.00;5065424;27;66468;-38
2021/08/27 03:19:10;;;;;;;4.03;3.63;;;;;;;30.73;66.21;100858.41;5042543;28;69051;-38
2021/08/27 03:21:55;;;;;;;3.53;3.22;;;;;;;30.81;67.14;100866.25;5073541;27;66210;-39
2021/08/27 03:24:43;;;;;;;4.95;3.45;;;;;;;30.23;67.52;100767.13;5075693;27;69998;-38
2021/08/27 03:27:27;;;;;;;4.43;3.50;;;;;;;30.55;67.57;100804.16;5064672;27;66321;-38
2021/08/27 03:30:18;;;;;;;4.32;4.00;;;;;;;30.81;67.40;100855.41;5059288;27;70312;-39
2021/08/27 03:33:08;;;;;;;4.30;3.40;;;;;;;30.86;66.55;100846.66;5074484;27;66101;-37
2021/08/27 03:36:01;;;;;;;7.28;4.05;;;;;;;30.88;66.50;100849.97;5050027;28;71313;-37
2021/08/27 03:38:48;;;;;;;5.78;4.70;;;;;;;30.60;65.21;100799.75;5059957;27;65766;-38
2021/08/27 03:41:27;;;;;;;4.83;4.20;;;;;;;30.90;64.35;100826.22;5050315;27;69182;-37
2021/08/27 03:44:06;;;;;;;5.33;4.83;;;;;;;30.86;64.29;100811.44;5071995;27;65836;-37
2021/08/27 03:46:42;;;;;;;4.93;4.07;;;;;;;31.02;65.11;100829.84;5071591;28;70675;-37
2021/08/27 03:49:19;;;;;;;4.78;3.63;;;;;;;31.07;64.47;100829.19;5068240;27;66786;-39
2021/08/27 03:52:00;;;;;;;11.18;3.88;;;;;;;31.10;63.55;100821.41;5072633;27;69111;-37
2021/08/27 03:54:35;;;;;;;3.78;3.47;;;;;;;31.15;62.90;100818.88;5069924;27;65988;-39
2021/08/27 03:57:12;;;;;;;6.45;3.28;;;;;;;31.19;64.22;100818.44;5053843;27;70271;-39
2021/08/27 03:59:50;;;;;;;3.38;3.10;;;;;;;30.64;64.35;100719.72;5063521;27;67609;-38
2021/08/27 04:02:23;;;;;;;4.55;4.05;;;;;;;31.25;64.68;100812.09;5074250;27;69031;-40
2021/08/27 04:05:17;;;;;;;5.45;2.97;;;;;;;31.20;62.84;100809.22;5027097;27;66101;-37
2021/08/27 04:07:50;;;;;;;4.95;3.25;;;;;;;31.33;62.63;100798.25;5084230;27;70879;-38
2021/08/27 04:10:24;;;;;;;2.30;2.10;;;;;;;31.33;61.07;100785.53;5053339;28;66233;-39
2021/08/27 04:12:56;;;;;;;4.47;3.50;;;;;;;31.40;62.97;100790.94;5068545;27;67878;-38
2021/08/27 04:15:31;;;;;;;2.40;2.20;;;;;;;31.44;60.29;100794.00;5066915;27;66193;-37
2021/08/27 04:18:23;;;;;;;5.22;2.65;;;;;;;31.39;60.79;100787.34;5052858;27;70372;-38
2021/08/27 04:21:00;;;;;;;2.40;2.20;;;;;;;31.42;60.84;100780.66;5068709;28;65710;-38
2021/08/27 04:23:34;;;;;;;2.55;2.33;;;;;;;31.49;61.15;100781.44;5066622;27;68958;-37
2021/08/27 04:26:12;;;;;;;3.50;3.17;;;;;;;31.38;61.28;100746.94;5065723;27;67282;-38
2021/08/27 04:28:47;;;;;;;3.08;2.88;;;;;;;31.60;61.01;100767.09;5069070;27;70043;-38
2021/08/27 04:31:20;;;;;;;3.60;3.25;;;;;;;31.65;60.72;100769.13;5059100;27;66602;-38
2021/08/27 04:33:58;;;;;;;3.92;3.60;;;;;;;31.69;61.38;100764.09;5071097;27;69560;-39
2021/08/27 04:36:31;;;;;;;5.78;4.13;;;;;;;31.68;60.60;100752.41;5075113;27;66082;-37
2021/08/27 04:39:02;;;;;;;5.38;3.53;;;;;;;31.64;61.43;100736.81;5081819;27;70499;-37
2021/08/27 04:41:35;;;;;;;3.83;3.63;;;;;;;31.76;61.93;100743.97;5054885;28;64843;-38
2021/08/27 04:44:07;;;;;;;5.43;4.93;;;;;;;31.72;62.93;100747.34;5077642;27;69856;-38
2021/08/27 04:46:43;;;;;;;4.97;4.57;;;;;;;31.47;62.64;100690.53;5066859;27;66950;-38
2021/08/27 04:49:14;;;;;;;3.53;3.22;;;;;;;31.79;62.14;100731.81;5070146;27;70966;-38
2021/08/27 04:51:46;;;;;;;6.85;3.55;;;;;;;31.81;61.56;100737.81;5056091;28;65908;-38
2021/08/27 04:54:31;;;;;;;5.68;2.75;;;;;;;31.88;61.50;100725.00;5073522;27;69659;-37
2021/08/27 04:57:13;;;;;;;3.97;3.25;;;;;;;31.92;62.75;100725.41;5073181;27;65375;-37
2021/08/27 04:59:48;;;;;;;3.17;2.88;;;;;;;31.90;63.27;100720.19;5043378;28;70532;-37
2021/08/27 05:02:23;;;;;;;4.28;3.08;;;;;;;31.72;60.99;100677.66;5061772;27;66215;-37
2021/08/27 05:04:58;;;;;;;3.42;2.40;;;;;;;31.98;60.96;100711.75;5072077;27;71662;-37
2021/08/27 05:07:29;;;;;;;6.50;2.58;;;;;;;31.98;61.24;100709.03;5054361;28;65664;-37
2021/08/27 05:10:04;;;;;;;11.18;2.70;;;;;;;32.01;61.79;100713.16;5068922;27;70035;-37
2021/08/27 05:12:40;;;;;;;10.55;3.00;;;;;;;32.00;62.01;100706.91;5045170;28;67715;-36
2021/08/27 05:15:15;;;;;;;9.30;3.15;;;;;;;31.92;60.64;100693.66;5063591;27;70004;-37
2021/08/27 05:17:55;;;;;;;6.95;2.72;;;;;;;31.66;59.99;100672.34;5070741;27;65685;-38
2021/08/27 05:20:29;;;;;;;14.30;3.10;;;;;;;31.70;58.76;100690.63;5067673;28;69585;-38
2021/08/27 05:23:02;;;;;;;6.45;2.78;;;;;;;31.58;57.95;100687.88;5041941;28;66287;-37
2021/08/27 05:25:39;;;;;;;7.15;2.58;;;;;;;31.43;57.64;100673.09;5069679;27;71032;-39
2021/08/27 05:28:12;;;;;;;8.70;2.20;;;;;;;31.36;56.63;100665.84;5070195;27;66315;-37
2021/08/27 05:30:44;;;;;;;3.40;2.08;;;;;;;31.31;55.87;100665.66;5079486;27;70500;-37
2021/08/27 05:33:17;;;;;;;3.87;1.70;;;;;;;31.24;55.33;100669.53;5044884;27;66196;-37
2021/08/27 05:35:50;;;;;;;9.68;1.88;;;;;;;31.15;54.98;100661.72;5066653;27;70540;-38
2021/08/27 05:38:21;;;;;;;12.35;1.98;;;;;;;31.08;54.10;100666.38;5062483;27;65070;-38
2021/08/27 05:40:56;;;;;;;13.52;1.88;;;;;;;31.02;53.94;100650.22;5072157;27;70039;-38
2021/08/27 05:43:29;;;;;;;4.25;1.88;;;;;;;30.96;53.32;100649.25;5069711;27;66379;-38
2021/08/27 05:46:02;;;;;;;6.68;2.22;;;;;;;30.96;53.39;100643.00;5066532;27;69741;-38
2021/08/27 05:48:34;;;;;;;7.90;1.80;;;;;;;30.86;52.55;100627.28;5067860;27;65836;-38
2021/08/27 05:51:08;;;;;;;6.63;1.63;;;;;;;30.82;51.55;100623.38;5067831;27;70904;-37
2021/08/27 05:53:41;;;;;;;4.13;1.73;;;;;;;30.83;51.78;100625.84;5055083;27;67018;-37
2021/08/27 05:56:14;;;;;;;6.07;1.90;;;;;;;30.78;50.83;100617.53;5078353;27;70028;-37
2021/08/27 05:58:54;;;;;;;3.35;1.50;;;;;;;30.45;50.96;100559.19;5075945;27;66602;-36
2021/08/27 06:01:32;;;;;;;3.13;1.30;;;;;;;30.45;49.82;100561.91;5076091;27;70196;-38
2021/08/27 06:04:08;;;;;;;3.60;1.50;;;;;;;30.73;50.21;100604.69;5050774;27;66130;-39
2021/08/27 06:06:41;;;;;;;4.80;1.67;;;;;;;30.73;53.16;100593.03;5075825;27;70400;-38
2021/08/27 06:09:15;;;;;;;5.75;2.03;;;;;;;30.76;51.71;100592.59;5073618;27;65272;-38
2021/08/27 06:11:48;;;;;;;2.50;1.63;;;;;;;30.75;51.35;100590.09;5063931;28;70267;-37
2021/08/27 06:14:26;;;;;;;2.17;1.90;;;;;;;30.73;50.87;100588.44;5073621;27;66927;-38
2021/08/27 06:17:02;;;;;;;8.02;1.60;;;;;;;30.73;50.11;100587.63;5057216;27;70560;-38
2021/08/27 06:19:33;;;;;;;2.10;1.95;;;;;;;30.67;49.39;100578.53;5067819;28;65185;-37
2021/08/27 06:22:13;;;;;;;3.20;1.60;;;;;;;30.70;48.97;100571.81;5074865;27;70268;-38
2021/08/27 06:24:51;;;;;;;2.83;1.77;;;;;;;30.40;48.51;100517.63;5073844;27;66935;-38
2021/08/27 06:27:26;;;;;;;3.53;1.90;;;;;;;30.72;47.88;100567.00;5075141;27;70163;-38
2021/08/27 06:30:02;;;;;;;1.83;1.73;;;;;;;30.72;47.82;100554.28;5076658;27;65502;-38
2021/08/27 06:32:39;;;;;;;2.35;1.77;;;;;;;30.69;47.93;100557.44;5074395;28;70960;-38
2021/08/27 06:35:17;;;;;;;2.25;1.73;;;;;;;30.70;46.77;100550.13;5037695;28;65960;-38
2021/08/27 06:40:40;;;;;;;3.78;1.70;;;;;;;30.67;46.33;100540.63;5079991;27;65358;-39
2021/08/27 06:43:14;;;;;;;2.05;1.50;;;;;;;30.62;46.68;100532.34;5077226;27;71571;-38
2021/08/27 06:45:50;;;;;;;2.03;1.80;;;;;;;30.68;46.32;100531.44;5078738;27;66473;-38
2021/08/27 06:48:28;;;;;;;1.80;1.40;;;;;;;30.68;45.32;100528.72;5071789;27;70284;-37
2021/08/27 06:51:04;;;;;;;2.38;1.80;;;;;;;30.68;45.34;100527.91;5073855;27;66667;-38
2021/08/27 06:53:37;;;;;;;2.00;1.80;;;;;;;30.65;46.04;100518.34;5067135;28;69516;-37
2021/08/27 06:56:16;;;;;;;2.03;1.58;;;;;;;30.69;45.19;100516.84;5073055;27;66373;-38
2021/08/27 06:58:52;;;;;;;5.15;1.83;;;;;;;30.72;46.14;100516.38;5071514;27;69556;-38
2021/08/27 07:01:29;;;;;;;1.90;1.65;;;;;;;30.47;45.12;100462.34;5069677;28;65979;-36
2021/08/27 07:04:24;;;;;;;3.75;1.80;;;;;;;30.76;44.69;100507.78;5059086;27;70064;-37
2021/08/27 07:06:58;;;;;;;1.92;1.50;;;;;;;30.54;44.54;100464.97;5062096;28;67615;-36
2021/08/27 07:09:31;;;;;;;1.55;1.42;;;;;;;30.77;45.04;100491.31;5085833;27;70162;-38
2021/08/27 07:12:05;;;;;;;3.40;1.55;;;;;;;30.75;44.47;100487.19;5063973;27;66146;-37
2021/08/27 07:14:56;;;;;;;1.55;1.45;;;;;;;30.77;44.57;100474.25;5079690;27;70091;-39
2021/08/27 07:17:40;;;;;;;5.03;1.60;;;;;;;30.78;44.27;100478.59;5074825;27;66300;-38
2021/08/27 07:20:26;;;;;;;2.50;1.98;;;;;;;30.81;43.97;100470.88;5076663;27;70647;-38
2021/08/27 07:23:14;;;;;;;2.45;1.98;;;;;;;30.85;44.08;100471.25;5070547;27;65544;-38
2021/08/27 07:25:45;;;;;;;5.47;1.45;;;;;;;30.89;44.44;100473.25;5070416;27;69246;-38
2021/08/27 07:28:20;;;;;;;1.77;1.67;;;;;;;30.91;43.97;100465.75;5060242;28;68178;-37
2021/08/27 07:30:55;;;;;;;1.98;1.85;;;;;;;30.95;43.84;100455.25;5070760;27;70349;-37
2021/08/27 07:33:28;;;;;;;1.80;1.70;;;;;;;31.00;43.66;100463.53;5073659;27;65604;-37
2021/08/27 07:36:02;;;;;;;2.75;1.60;;;;;;;31.01;43.84;100462.50;5066961;28;69829;-37
2021/08/27 07:38:37;;;;;;;1.70;1.60;;;;;;;31.05;44.17;100460.97;5038066;28;64956;-38
2021/08/27 07:41:10;;;;;;;1.80;1.60;;;;;;;31.06;43.53;100443.63;5078778;27;71630;-38
2021/08/27 07:43:49;;;;;;;3.15;1.52;;;;;;;31.07;42.70;100450.72;5079927;27;65744;-39
2021/08/27 07:46:22;;;;;;;1.67;1.58;;;;;;;31.09;42.96;100440.50;5071373;27;69321;-38
2021/08/27 07:48:54;;;;;;;3.60;1.50;;;;;;;31.14;43.31;100437.06;5068467;27;65730;-39
2021/08/27 07:51:26;;;;;;;3.35;1.80;;;;;;;31.16;43.17;100435.78;5074380;28;69942;-39
2021/08/27 07:54:08;;;;;;;1.77;1.67;;;;;;;31.24;42.46;100436.50;5075565;27;66379;-38
2021/08/27 07:56:44;;;;;;;1.40;1.30;;;;;;;31.28;43.19;100426.84;5074581;27;69862;-38
2021/08/27 07:59:22;;;;;;;2.20;1.70;;;;;;;31.25;42.55;100427.31;5040296;27;65874;-38
2021/08/27 08:02:08;;;;;;;2.15;1.50;;;;;;;31.29;42.48;100428.50;5061921;27;69025;-38
2021/08/27 08:04:49;;;;;;;15.68;1.92;;;;;;;31.31;42.69;100419.06;5072322;27;66208;-37
2021/08/27 08:07:21;;;;;;;2.05;1.63;;;;;;;31.35;42.67;100411.31;5051985;28;69855;-38
2021/08/27 08:10:19;;;;;;;5.72;2.05;;;;;;;31.40;42.86;100406.03;5072358;27;65755;-38
2021/08/27 08:12:54;;;;;;;2.13;1.85;;;;;;;31.42;42.44;100401.19;5070657;27;71740;-38
2021/08/27 08:15:28;;;;;;;6.55;2.17;;;;;;;31.45;43.13;100395.28;5055116;27;66860;-39
2021/08/27 08:18:05;;;;;;;7.95;2.67;;;;;;;31.51;43.26;100405.22;5076445;27;70037;-37
2021/08/27 08:20:44;;;;;;;12.02;2.15;;;;;;;31.51;43.85;100402.50;5056874;27;64604;-39
2021/08/27 08:23:21;;;;;;;11.70;2.25;;;;;;;31.51;43.90;100398.94;5070680;27;69807;-39
2021/08/27 08:25:57;;;;;;;11.13;3.15;;;;;;;31.52;43.27;100398.72;5069694;27;66801;-38
2021/08/27 08:28:32;;;;;;;3.08;2.00;;;;;;;31.51;43.57;100399.78;5064043;27;70242;-38
2021/08/27 08:31:06;;;;;;;17.63;2.20;;;;;;;31.52;43.19;100398.72;5047122;27;65992;-39
2021/08/27 08:33:41;;;;;;;5.63;2.10;;;;;;;31.53;43.50;100403.06;5057306;27;69954;-38
2021/08/27 08:36:24;;;;;;;;;;;;;;;31.31;45.69;100391.13;5063934;27;65653;-39
2021/08/27 08:38:58;;;;;;;9.50;2.92;;;;;;;31.59;45.16;100402.16;5060777;27;69883;-39
2021/08/27 08:41:32;;;;;;;11.48;3.28;;;;;;;31.67;45.30;100394.69;5045426;28;67438;-38
2021/08/27 08:44:16;;;;;;;5.18;2.63;;;;;;;31.67;46.17;100383.84;5067295;27;70228;-38
2021/08/27 08:47:06;;;;;;;5.47;2.88;;;;;;;31.61;46.30;100381.03;5077951;27;66093;-38
2021/08/27 08:49:46;;;;;;;26.63;3.25;;;;;;;31.70;46.36;100383.38;5049561;27;70244;-38
2021/08/27 08:52:22;;;;;;;4.38;2.63;;;;;;;31.70;45.47;100386.09;5074019;27;66182;-38
2021/08/27 08:54:55;;;;;;;7.32;2.83;;;;;;;31.72;45.34;100379.38;5059855;27;69902;-39
2021/08/27 08:57:32;;;;;;;9.65;3.00;;;;;;;31.71;45.61;100371.47;5076851;27;66393;-40
2021/08/27 09:00:05;;;;;;;17.00;2.80;;;;;;;31.76;46.00;100385.97;5056095;27;71170;-38
2021/08/27 09:02:39;;;;;;;15.68;3.92;;;;;;;31.88;46.96;100391.38;5068038;27;65217;-38
2021/08/27 09:05:11;;;;;;;7.68;2.92;;;;;;;32.01;47.43;100393.88;5068893;27;72548;-38
2021/08/27 09:07:44;;;;;;;11.73;3.58;;;;;;;32.14;49.37;100394.63;5076358;27;66510;-38
2021/08/27 09:10:28;;;;;;;5.78;3.30;;;;;;;31.75;53.06;100302.94;5060279;27;69974;-38
2021/08/27 09:13:11;;;;;;;4.18;3.33;;;;;;;32.41;54.76;100390.28;5071550;27;65945;-40
2021/08/27 09:15:44;;;;;;;5.22;3.13;;;;;;;32.55;55.14;100392.75;5045853;27;70674;-40
2021/08/27 09:18:17;;;;;;;6.70;3.08;;;;;;;32.61;56.24;100387.16;5034293;28;65764;-39
2021/08/27 09:20:53;;;;;;;12.15;3.63;;;;;;;32.68;57.25;100392.44;5044971;27;70385;-38
2021/08/27 09:23:27;;;;;;;4.05;3.13;;;;;;;32.75;57.15;100382.25;5052094;27;65462;-40
2021/08/27 09:26:02;;;;;;;4.07;3.35;;;;;;;32.87;57.45;100384.88;5048178;27;71825;-38
2021/08/27 09:28:38;;;;;;;5.93;3.08;;;;;;;32.91;57.90;100384.16;5035965;27;67468;-41
2021/08/27 09:31:11;;;;;;;4.38;3.60;;;;;;;32.94;57.69;100391.00;5070541;27;69894;-38
2021/08/27 09:33:57;;;;;;;4.25;3.25;;;;;;;32.95;58.11;100392.63;5048931;27;65931;-37
2021/08/27 09:36:37;;;;;;;7.85;3.97;;;;;;;33.05;58.42;100400.19;5067874;27;70221;-37
2021/08/27 09:39:14;;;;;;;6.10;4.50;;;;;;;33.08;57.51;100405.13;5064753;27;65555;-40
2021/08/27 09:41:59;;;;;;;6.75;5.72;;;;;;;33.09;57.00;100404.03;5043540;27;69231;-38
2021/08/27 09:44:31;;;;;;;5.18;4.88;;;;;;;33.11;57.72;100391.03;5079484;27;65649;-38
2021/08/27 09:47:12;;;;;;;6.90;6.07;;;;;;;33.19;55.04;100401.50;5059120;27;70070;-45
2021/08/27 09:49:49;;;;;;;8.75;5.65;;;;;;;33.23;55.38;100399.91;5044351;27;66224;-38
2021/08/27 09:52:21;;;;;;;6.05;5.63;;;;;;;33.26;55.25;100399.41;5039941;28;69813;-39
2021/08/27 09:55:08;;;;;;;6.80;6.40;;;;;;;33.22;55.10;100401.00;5062322;27;66756;-40
2021/08/27 09:57:45;;;;;;;14.43;7.35;;;;;;;33.33;54.07;100405.50;5047380;28;70286;-38
2021/08/27 10:00:37;;;;;;;7.38;6.75;;;;;;;33.31;55.86;100396.78;5077319;27;66301;-38
2021/08/27 10:03:29;;;;;;;8.05;7.43;;;;;;;33.37;52.98;100400.41;5049973;28;70342;-39
2021/08/27 10:06:05;;;;;;;7.82;7.32;;;;;;;33.42;53.51;100396.94;5068287;27;64013;-39
2021/08/27 10:08:39;;;;;;;7.65;7.07;;;;;;;33.43;53.98;100399.41;5041360;28;69799;-40
2021/08/27 10:11:21;;;;;;;7.00;6.60;;;;;;;33.44;53.46;100389.38;5069589;27;66171;-43
2021/08/27 10:13:55;;;;;;;7.60;6.97;;;;;;;33.42;54.81;100396.94;5024563;28;70319;-39
2021/08/27 10:16:30;;;;;;;8.00;7.40;;;;;;;33.56;54.49;100417.28;5060924;27;65593;-40
2021/08/27 10:19:02;;;;;;;7.95;7.35;;;;;;;33.53;56.51;100417.81;5073009;27;69910;-39
2021/08/27 10:21:37;;;;;;;7.38;6.78;;;;;;;33.52;57.02;100430.56;5068721;27;66592;-38
2021/08/27 10:24:10;;;;;;;6.72;6.32;;;;;;;33.55;57.39;100445.56;5035165;28;69193;-39
2021/08/27 10:26:47;;;;;;;12.02;7.60;;;;;;;33.54;58.47;100452.06;5066848;27;66431;-38
2021/08/27 10:29:22;;;;;;;9.18;7.07;;;;;;;33.59;57.79;100460.31;5073391;27;69393;-39
2021/08/27 10:31:56;;;;;;;13.57;7.07;;;;;;;33.55;58.75;100460.00;5068029;27;65957;-40
2021/08/27 10:34:50;;;;;;;14.40;6.93;;;;;;;33.48;59.12;100462.00;5071853;28;70837;-40
2021/08/27 10:37:54;;;;;;;9.10;7.35;;;;;;;33.44;59.52;100465.50;5060826;27;65896;-40
2021/08/27 10:40:27;;;;;;;7.82;7.13;;;;;;;33.54;59.08;100471.94;5055984;27;70256;-39
2021/08/27 10:43:06;;;;;;;7.78;7.07;;;;;;;33.25;58.93;100424.13;5059049;28;66602;-39
2021/08/27 10:45:43;;;;;;;8.60;6.88;;;;;;;33.50;59.44;100478.09;5072338;27;69439;-46
2021/08/27 10:48:25;;;;;;;7.15;6.40;;;;;;;33.50;59.37;100480.81;5072975;27;65497;-40
2021/08/27 10:50:58;;;;;;;8.03;7.30;;;;;;;33.41;59.48;100472.25;5078322;27;70634;-39
2021/08/27 10:53:38;;;;;;;8.05;7.40;;;;;;;33.43;59.88;100480.13;5061257;27;65704;-38
2021/08/27 10:56:38;;;;;;;8.00;7.50;;;;;;;33.44;59.70;100498.13;5057195;27;70281;-39
2021/08/27 10:59:16;;;;;;;7.95;7.22;;;;;;;33.51;59.55;100509.63;5066647;27;66343;-38
2021/08/27 11:01:59;;;;;;;6.90;6.50;;;;;;;33.48;59.94;100515.56;5068541;27;69806;-40
2021/08/27 11:04:41;;;;;;;6.90;6.47;;;;;;;33.48;60.13;100515.56;5067303;27;64885;-38
2021/08/27 11:07:30;;;;;;;7.13;6.57;;;;;;;33.49;59.60;100504.47;5071162;27;70254;-38
2021/08/27 11:10:09;;;;;;;7.85;7.25;;;;;;;33.40;59.41;100496.94;5067790;27;66879;-38
2021/08/27 11:13:11;;;;;;;8.07;7.57;;;;;;;33.42;59.00;100506.50;5063536;27;69815;-39
2021/08/27 11:15:44;;;;;;;9.23;8.63;;;;;;;33.47;58.21;100508.50;5072506;27;65734;-39
2021/08/27 11:18:24;;;;;;;9.77;9.00;;;;;;;33.22;57.93;100474.38;5079043;27;71874;-38
2021/08/27 11:20:58;;;;;;;9.80;9.18;;;;;;;33.41;57.95;100504.88;5070268;27;65289;-38
2021/08/27 11:23:52;;;;;;;10.48;9.48;;;;;;;33.31;58.43;100526.44;5073585;27;70148;-38
2021/08/27 11:26:41;;;;;;;10.68;9.82;;;;;;;33.24;58.47;100507.59;5058905;27;66121;-38
2021/08/27 11:29:38;;;;;;;10.48;9.57;;;;;;;33.28;58.53;100529.66;5072389;27;70549;-38
2021/08/27 11:32:54;;;;;;;9.93;9.20;;;;;;;33.28;58.68;100538.63;5071774;27;66470;-38
2021/08/27 11:35:53;;;;;;;11.70;10.15;;;;;;;33.09;59.25;100518.16;5056778;27;69184;-40
2021/08/27 11:38:34;;;;;;;10.18;9.52;;;;;;;33.35;59.00;100571.13;5065626;27;66348;-39
2021/08/27 11:41:12;;;;;;;9.75;9.00;;;;;;;33.35;59.52;100571.13;5056188;27;69927;-38
2021/08/27 11:43:48;;;;;;;10.38;9.38;;;;;;;33.31;59.84;100576.19;5042162;27;66381;-39
2021/08/27 11:46:25;;;;;;;9.57;9.00;;;;;;;33.29;60.03;100583.78;5059074;27;70279;-40
2021/08/27 11:49:35;;;;;;;12.07;10.07;;;;;;;33.23;60.03;100594.78;5084798;27;66589;-39
2021/08/27 11:52:22;;;;;;;10.43;9.45;;;;;;;33.08;60.38;100557.28;5073324;27;70096;-38
2021/08/27 11:55:16;;;;;;;10.15;9.45;;;;;;;33.31;60.38;100595.22;5067050;27;66312;-38
2021/08/27 11:58:03;;;;;;;9.60;8.75;;;;;;;33.33;60.76;100609.41;5059176;27;70709;-40
2021/08/27 12:00:40;;;;;;;11.82;9.15;;;;;;;33.34;61.49;100613.75;5045497;27;67409;-39
2021/08/27 12:03:29;;;;;;;11.20;10.13;;;;;;;33.38;61.11;100620.38;5064298;27;69907;-40
2021/08/27 12:06:19;;;;;;;10.27;9.60;;;;;;;33.28;61.74;100617.47;5059702;27;66083;-39
2021/08/27 12:08:56;;;;;;;10.75;9.90;;;;;;;33.35;61.89;100631.75;5076314;27;70017;-39
2021/08/27 12:11:33;;;;;;;10.95;9.93;;;;;;;33.36;62.40;100632.56;5042232;27;66790;-39
2021/08/27 12:14:14;;;;;;;11.00;10.02;;;;;;;33.37;61.98;100624.16;5072758;27;69984;-39
2021/08/27 12:16:50;;;;;;;11.00;10.18;;;;;;;33.36;62.18;100627.94;5038487;28;66133;-39
2021/08/27 12:19:37;;;;;;;10.52;9.82;;;;;;;33.37;62.45;100623.31;5071075;27;69985;-37
2021/08/27 12:22:18;;;;;;;10.50;9.55;;;;;;;33.30;62.83;100615.34;5051688;27;66484;-40